sensor_id;sensor_type;location;lat;lon;timestamp;P1;durP1;ratioP1;P2;durP2;ratioP2
20928;SDS011;21895;47.072;15.132;2022-11-18T00:01:07;17.37;;;7.80;;
20928;SDS011;21895;47.072;15.132;2022-11-18T00:03:41;23.20;;;9.20;;
20928;SDS011;21895;47.072;15.132;2022-11-18T00:06:15;32.07;;;9.30;;
20928;SDS011;21895;47.072;15.132;2022-11-18T00:08:46;35.67;;;9.00;;
20928;SDS011;21895;47.072;15.132;2022-11-18T00:11:14;20.77;;;8.43;;
20928;SDS011;21895;47.072;15.132;2022-11-18T00:14:02;43.47;;;8.20;;
20928;SDS011;21895;47.072;15.132;2022-11-18T00:16:46;30.17;;;8.40;;
20928;SDS011;21895;47.072;15.132;2022-11-18T00:19:28;35.63;;;9.33;;
20928;SDS011;21895;47.072;15.132;2022-11-18T00:21:59;17.63;;;8.43;;
20928;SDS011;21895;47.072;15.132;2022-11-18T00:24:26;18.77;;;8.50;;
20928;SDS011;21895;47.072;15.132;2022-11-18T00:26:53;17.17;;;8.17;;
20928;SDS011;21895;47.072;15.132;2022-11-18T00:29:20;22.03;;;9.03;;
20928;SDS011;21895;47.072;15.132;2022-11-18T00:31:48;19.73;;;9.00;;
20928;SDS011;21895;47.072;15.132;2022-11-18T00:34:15;23.27;;;9.90;;
20928;SDS011;21895;47.072;15.132;2022-11-18T00:36:44;24.20;;;10.00;;
20928;SDS011;21895;47.072;15.132;2022-11-18T00:39:12;26.07;;;10.43;;
20928;SDS011;21895;47.072;15.132;2022-11-18T00:41:42;19.80;;;9.50;;
20928;SDS011;21895;47.072;15.132;2022-11-18T00:44:28;20.27;;;9.57;;
20928;SDS011;21895;47.072;15.132;2022-11-18T00:46:55;21.33;;;9.60;;
20928;SDS011;21895;47.072;15.132;2022-11-18T00:49:22;21.10;;;9.23;;
20928;SDS011;21895;47.072;15.132;2022-11-18T00:51:49;18.23;;;8.43;;
20928;SDS011;21895;47.072;15.132;2022-11-18T00:54:15;21.17;;;8.90;;
20928;SDS011;21895;47.072;15.132;2022-11-18T00:56:42;19.97;;;9.37;;
20928;SDS011;21895;47.072;15.132;2022-11-18T00:59:09;24.13;;;10.73;;
20928;SDS011;21895;47.072;15.132;2022-11-18T01:01:35;25.87;;;11.13;;
20928;SDS011;21895;47.072;15.132;2022-11-18T01:04:02;22.83;;;10.20;;
20928;SDS011;21895;47.072;15.132;2022-11-18T01:06:29;21.77;;;10.17;;
20928;SDS011;21895;47.072;15.132;2022-11-18T01:08:55;19.60;;;9.43;;
20928;SDS011;21895;47.072;15.132;2022-11-18T01:11:22;23.27;;;9.37;;
20928;SDS011;21895;47.072;15.132;2022-11-18T01:14:06;21.37;;;9.33;;
20928;SDS011;21895;47.072;15.132;2022-11-18T01:16:33;21.23;;;9.17;;
20928;SDS011;21895;47.072;15.132;2022-11-18T01:19:00;19.80;;;9.20;;
20928;SDS011;21895;47.072;15.132;2022-11-18T01:21:27;25.20;;;10.37;;
20928;SDS011;21895;47.072;15.132;2022-11-18T01:23:54;20.77;;;10.00;;
20928;SDS011;21895;47.072;15.132;2022-11-18T01:26:20;25.53;;;9.50;;
20928;SDS011;21895;47.072;15.132;2022-11-18T01:28:47;21.33;;;8.90;;
20928;SDS011;21895;47.072;15.132;2022-11-18T01:31:14;21.97;;;8.20;;
20928;SDS011;21895;47.072;15.132;2022-11-18T01:33:44;19.10;;;9.43;;
20928;SDS011;21895;47.072;15.132;2022-11-18T01:38:56;19.20;;;8.50;;
20928;SDS011;21895;47.072;15.132;2022-11-18T01:41:23;23.17;;;8.80;;
20928;SDS011;21895;47.072;15.132;2022-11-18T01:43:58;23.53;;;8.67;;
20928;SDS011;21895;47.072;15.132;2022-11-18T01:46:28;19.00;;;8.57;;
20928;SDS011;21895;47.072;15.132;2022-11-18T01:49:08;21.60;;;9.23;;
20928;SDS011;21895;47.072;15.132;2022-11-18T01:52:01;19.83;;;8.40;;
20928;SDS011;21895;47.072;15.132;2022-11-18T01:54:35;18.33;;;8.73;;
20928;SDS011;21895;47.072;15.132;2022-11-18T01:57:08;23.23;;;9.30;;
20928;SDS011;21895;47.072;15.132;2022-11-18T01:59:47;17.80;;;8.57;;
20928;SDS011;21895;47.072;15.132;2022-11-18T02:02:19;17.40;;;8.47;;
20928;SDS011;21895;47.072;15.132;2022-11-18T02:04:47;19.27;;;8.60;;
20928;SDS011;21895;47.072;15.132;2022-11-18T02:07:17;16.07;;;8.23;;
20928;SDS011;21895;47.072;15.132;2022-11-18T02:09:46;24.87;;;9.30;;
20928;SDS011;21895;47.072;15.132;2022-11-18T02:12:13;25.43;;;9.80;;
20928;SDS011;21895;47.072;15.132;2022-11-18T02:14:40;23.83;;;9.13;;
20928;SDS011;21895;47.072;15.132;2022-11-18T02:17:30;18.13;;;8.40;;
20928;SDS011;21895;47.072;15.132;2022-11-18T02:20:36;20.10;;;8.63;;
20928;SDS011;21895;47.072;15.132;2022-11-18T02:27:40;20.43;;;7.73;;
20928;SDS011;21895;47.072;15.132;2022-11-18T02:32:15;19.27;;;7.73;;
20928;SDS011;21895;47.072;15.132;2022-11-18T02:35:14;37.87;;;8.37;;
20928;SDS011;21895;47.072;15.132;2022-11-18T02:37:57;19.03;;;8.23;;
20928;SDS011;21895;47.072;15.132;2022-11-18T02:40:36;19.43;;;7.43;;
20928;SDS011;21895;47.072;15.132;2022-11-18T02:43:12;18.47;;;7.70;;
20928;SDS011;21895;47.072;15.132;2022-11-18T02:45:54;21.17;;;8.60;;
20928;SDS011;21895;47.072;15.132;2022-11-18T02:48:27;17.33;;;8.83;;
20928;SDS011;21895;47.072;15.132;2022-11-18T02:50:58;22.07;;;8.50;;
20928;SDS011;21895;47.072;15.132;2022-11-18T02:53:28;20.23;;;8.30;;
20928;SDS011;21895;47.072;15.132;2022-11-18T02:55:58;21.23;;;8.30;;
20928;SDS011;21895;47.072;15.132;2022-11-18T02:58:27;16.70;;;7.40;;
20928;SDS011;21895;47.072;15.132;2022-11-18T03:00:55;21.77;;;8.37;;
20928;SDS011;21895;47.072;15.132;2022-11-18T03:03:25;45.43;;;8.83;;
20928;SDS011;21895;47.072;15.132;2022-11-18T03:06:30;40.33;;;8.30;;
20928;SDS011;21895;47.072;15.132;2022-11-18T03:12:13;14.70;;;7.20;;
20928;SDS011;21895;47.072;15.132;2022-11-18T03:16:57;37.43;;;8.23;;
20928;SDS011;21895;47.072;15.132;2022-11-18T03:20:05;61.17;;;8.60;;
20928;SDS011;21895;47.072;15.132;2022-11-18T03:22:51;87.27;;;9.50;;
20928;SDS011;21895;47.072;15.132;2022-11-18T03:26:26;100.30;;;8.53;;
20928;SDS011;21895;47.072;15.132;2022-11-18T03:29:07;144.53;;;9.37;;
20928;SDS011;21895;47.072;15.132;2022-11-18T03:31:49;94.10;;;8.57;;
20928;SDS011;21895;47.072;15.132;2022-11-18T03:34:36;99.00;;;8.67;;
20928;SDS011;21895;47.072;15.132;2022-11-18T03:37:11;42.43;;;7.33;;
20928;SDS011;21895;47.072;15.132;2022-11-18T03:39:41;21.80;;;7.17;;
20928;SDS011;21895;47.072;15.132;2022-11-18T03:42:29;23.07;;;7.30;;
20928;SDS011;21895;47.072;15.132;2022-11-18T03:45:06;29.43;;;7.20;;
20928;SDS011;21895;47.072;15.132;2022-11-18T03:48:25;57.87;;;7.03;;
20928;SDS011;21895;47.072;15.132;2022-11-18T03:50:59;67.80;;;8.00;;
20928;SDS011;21895;47.072;15.132;2022-11-18T03:53:33;80.73;;;7.97;;
20928;SDS011;21895;47.072;15.132;2022-11-18T03:56:17;115.97;;;7.90;;
20928;SDS011;21895;47.072;15.132;2022-11-18T03:58:54;94.77;;;7.93;;
20928;SDS011;21895;47.072;15.132;2022-11-18T04:01:45;67.70;;;7.70;;
20928;SDS011;21895;47.072;15.132;2022-11-18T04:04:20;49.40;;;6.93;;
20928;SDS011;21895;47.072;15.132;2022-11-18T04:07:08;69.33;;;7.70;;
20928;SDS011;21895;47.072;15.132;2022-11-18T04:10:51;45.83;;;6.47;;
20928;SDS011;21895;47.072;15.132;2022-11-18T04:15:09;47.50;;;7.87;;
20928;SDS011;21895;47.072;15.132;2022-11-18T04:17:39;67.63;;;8.07;;
20928;SDS011;21895;47.072;15.132;2022-11-18T04:20:17;92.43;;;9.20;;
20928;SDS011;21895;47.072;15.132;2022-11-18T04:22:46;60.70;;;7.00;;
20928;SDS011;21895;47.072;15.132;2022-11-18T04:25:13;52.50;;;7.57;;
20928;SDS011;21895;47.072;15.132;2022-11-18T04:27:40;43.57;;;6.50;;
20928;SDS011;21895;47.072;15.132;2022-11-18T04:30:06;41.83;;;6.70;;
20928;SDS011;21895;47.072;15.132;2022-11-18T04:32:34;15.33;;;5.83;;
20928;SDS011;21895;47.072;15.132;2022-11-18T04:35:01;26.77;;;6.63;;
20928;SDS011;21895;47.072;15.132;2022-11-18T04:37:27;21.60;;;6.23;;
20928;SDS011;21895;47.072;15.132;2022-11-18T04:39:54;42.33;;;7.03;;
20928;SDS011;21895;47.072;15.132;2022-11-18T04:42:20;38.17;;;6.83;;
20928;SDS011;21895;47.072;15.132;2022-11-18T04:44:47;37.80;;;7.07;;
20928;SDS011;21895;47.072;15.132;2022-11-18T04:47:13;35.17;;;6.60;;
20928;SDS011;21895;47.072;15.132;2022-11-18T04:49:40;14.53;;;6.23;;
20928;SDS011;21895;47.072;15.132;2022-11-18T04:52:06;44.00;;;7.40;;
20928;SDS011;21895;47.072;15.132;2022-11-18T04:54:33;38.57;;;6.90;;
20928;SDS011;21895;47.072;15.132;2022-11-18T04:56:59;63.90;;;7.20;;
20928;SDS011;21895;47.072;15.132;2022-11-18T04:59:27;36.80;;;6.93;;
20928;SDS011;21895;47.072;15.132;2022-11-18T05:01:54;48.30;;;6.63;;
20928;SDS011;21895;47.072;15.132;2022-11-18T05:04:25;49.87;;;7.20;;
20928;SDS011;21895;47.072;15.132;2022-11-18T05:06:55;68.47;;;7.17;;
20928;SDS011;21895;47.072;15.132;2022-11-18T05:09:22;71.17;;;7.57;;
20928;SDS011;21895;47.072;15.132;2022-11-18T05:11:56;99.10;;;6.73;;
20928;SDS011;21895;47.072;15.132;2022-11-18T05:14:41;71.30;;;6.40;;
20928;SDS011;21895;47.072;15.132;2022-11-18T05:17:14;57.63;;;6.80;;
20928;SDS011;21895;47.072;15.132;2022-11-18T05:19:41;26.57;;;6.07;;
20928;SDS011;21895;47.072;15.132;2022-11-18T05:22:07;77.57;;;6.70;;
20928;SDS011;21895;47.072;15.132;2022-11-18T05:24:34;78.37;;;6.07;;
20928;SDS011;21895;47.072;15.132;2022-11-18T05:27:00;34.17;;;6.13;;
20928;SDS011;21895;47.072;15.132;2022-11-18T05:29:27;16.03;;;4.77;;
20928;SDS011;21895;47.072;15.132;2022-11-18T05:31:53;23.63;;;5.23;;
20928;SDS011;21895;47.072;15.132;2022-11-18T05:34:20;78.20;;;6.77;;
20928;SDS011;21895;47.072;15.132;2022-11-18T05:36:46;59.20;;;5.80;;
20928;SDS011;21895;47.072;15.132;2022-11-18T05:39:13;73.77;;;5.53;;
20928;SDS011;21895;47.072;15.132;2022-11-18T05:41:40;129.70;;;7.00;;
20928;SDS011;21895;47.072;15.132;2022-11-18T05:45:28;134.97;;;8.13;;
20928;SDS011;21895;47.072;15.132;2022-11-18T05:47:55;62.33;;;6.27;;
20928;SDS011;21895;47.072;15.132;2022-11-18T05:50:24;80.97;;;6.53;;
20928;SDS011;21895;47.072;15.132;2022-11-18T05:52:51;72.27;;;6.67;;
20928;SDS011;21895;47.072;15.132;2022-11-18T05:55:18;51.60;;;8.53;;
20928;SDS011;21895;47.072;15.132;2022-11-18T05:57:48;48.37;;;9.17;;
20928;SDS011;21895;47.072;15.132;2022-11-18T06:00:15;67.70;;;9.70;;
20928;SDS011;21895;47.072;15.132;2022-11-18T06:02:42;104.03;;;11.10;;
20928;SDS011;21895;47.072;15.132;2022-11-18T06:05:12;60.17;;;11.50;;
20928;SDS011;21895;47.072;15.132;2022-11-18T06:07:41;32.80;;;10.23;;
20928;SDS011;21895;47.072;15.132;2022-11-18T06:10:31;27.63;;;10.47;;
20928;SDS011;21895;47.072;15.132;2022-11-18T06:13:05;23.73;;;9.80;;
20928;SDS011;21895;47.072;15.132;2022-11-18T06:15:37;21.27;;;9.43;;
20928;SDS011;21895;47.072;15.132;2022-11-18T06:18:15;29.47;;;9.47;;
20928;SDS011;21895;47.072;15.132;2022-11-18T06:20:50;30.80;;;6.93;;
20928;SDS011;21895;47.072;15.132;2022-11-18T06:23:24;28.80;;;6.33;;
20928;SDS011;21895;47.072;15.132;2022-11-18T06:25:53;14.50;;;6.50;;
20928;SDS011;21895;47.072;15.132;2022-11-18T06:28:20;13.67;;;6.33;;
20928;SDS011;21895;47.072;15.132;2022-11-18T06:30:48;14.00;;;6.13;;
20928;SDS011;21895;47.072;15.132;2022-11-18T06:33:14;14.43;;;6.37;;
20928;SDS011;21895;47.072;15.132;2022-11-18T06:35:41;14.67;;;6.30;;
20928;SDS011;21895;47.072;15.132;2022-11-18T06:38:08;11.77;;;6.13;;
20928;SDS011;21895;47.072;15.132;2022-11-18T06:40:34;12.90;;;5.70;;
20928;SDS011;21895;47.072;15.132;2022-11-18T06:43:08;13.37;;;6.03;;
20928;SDS011;21895;47.072;15.132;2022-11-18T06:46:01;12.90;;;5.70;;
20928;SDS011;21895;47.072;15.132;2022-11-18T06:48:47;13.13;;;5.60;;
20928;SDS011;21895;47.072;15.132;2022-11-18T06:51:14;12.40;;;5.57;;
20928;SDS011;21895;47.072;15.132;2022-11-18T06:53:40;13.33;;;6.37;;
20928;SDS011;21895;47.072;15.132;2022-11-18T06:56:08;15.00;;;6.50;;
20928;SDS011;21895;47.072;15.132;2022-11-18T06:58:38;12.43;;;6.00;;
20928;SDS011;21895;47.072;15.132;2022-11-18T07:01:15;10.00;;;5.57;;
20928;SDS011;21895;47.072;15.132;2022-11-18T07:03:48;10.63;;;5.00;;
20928;SDS011;21895;47.072;15.132;2022-11-18T07:06:19;9.17;;;5.30;;
20928;SDS011;21895;47.072;15.132;2022-11-18T07:08:49;12.77;;;6.00;;
20928;SDS011;21895;47.072;15.132;2022-11-18T07:11:17;16.17;;;5.43;;
20928;SDS011;21895;47.072;15.132;2022-11-18T07:13:48;17.57;;;5.53;;
20928;SDS011;21895;47.072;15.132;2022-11-18T07:16:19;12.23;;;6.07;;
20928;SDS011;21895;47.072;15.132;2022-11-18T07:18:48;22.87;;;6.93;;
20928;SDS011;21895;47.072;15.132;2022-11-18T07:21:18;21.17;;;7.83;;
20928;SDS011;21895;47.072;15.132;2022-11-18T07:23:50;19.00;;;7.90;;
20928;SDS011;21895;47.072;15.132;2022-11-18T07:26:17;16.30;;;8.20;;
20928;SDS011;21895;47.072;15.132;2022-11-18T07:28:45;19.63;;;9.03;;
20928;SDS011;21895;47.072;15.132;2022-11-18T07:31:12;21.27;;;10.27;;
20928;SDS011;21895;47.072;15.132;2022-11-18T07:33:43;24.30;;;9.97;;
20928;SDS011;21895;47.072;15.132;2022-11-18T07:36:11;17.87;;;8.43;;
20928;SDS011;21895;47.072;15.132;2022-11-18T07:38:44;37.73;;;10.20;;
20928;SDS011;21895;47.072;15.132;2022-11-18T07:41:15;20.83;;;9.80;;
20928;SDS011;21895;47.072;15.132;2022-11-18T07:43:44;23.07;;;11.07;;
20928;SDS011;21895;47.072;15.132;2022-11-18T07:46:18;26.70;;;11.57;;
20928;SDS011;21895;47.072;15.132;2022-11-18T07:48:48;26.77;;;11.27;;
20928;SDS011;21895;47.072;15.132;2022-11-18T07:51:18;23.20;;;11.23;;
20928;SDS011;21895;47.072;15.132;2022-11-18T07:53:47;27.13;;;10.77;;
20928;SDS011;21895;47.072;15.132;2022-11-18T07:56:14;22.40;;;10.73;;
20928;SDS011;21895;47.072;15.132;2022-11-18T07:58:43;23.90;;;10.40;;
20928;SDS011;21895;47.072;15.132;2022-11-18T08:01:14;23.57;;;10.17;;
20928;SDS011;21895;47.072;15.132;2022-11-18T08:03:45;22.77;;;9.57;;
20928;SDS011;21895;47.072;15.132;2022-11-18T08:06:14;29.10;;;10.40;;
20928;SDS011;21895;47.072;15.132;2022-11-18T08:08:43;22.07;;;9.97;;
20928;SDS011;21895;47.072;15.132;2022-11-18T08:11:11;23.07;;;9.97;;
20928;SDS011;21895;47.072;15.132;2022-11-18T08:13:47;21.07;;;9.87;;
20928;SDS011;21895;47.072;15.132;2022-11-18T08:16:15;22.60;;;10.17;;
20928;SDS011;21895;47.072;15.132;2022-11-18T08:18:45;30.97;;;11.40;;
20928;SDS011;21895;47.072;15.132;2022-11-18T08:21:13;22.30;;;10.70;;
20928;SDS011;21895;47.072;15.132;2022-11-18T08:23:42;20.00;;;9.57;;
20928;SDS011;21895;47.072;15.132;2022-11-18T08:26:13;31.53;;;8.93;;
20928;SDS011;21895;47.072;15.132;2022-11-18T08:28:40;19.67;;;8.97;;
20928;SDS011;21895;47.072;15.132;2022-11-18T08:31:12;23.73;;;10.10;;
20928;SDS011;21895;47.072;15.132;2022-11-18T08:33:52;22.23;;;9.30;;
20928;SDS011;21895;47.072;15.132;2022-11-18T08:36:52;22.17;;;10.27;;
20928;SDS011;21895;47.072;15.132;2022-11-18T08:39:21;22.67;;;10.07;;
20928;SDS011;21895;47.072;15.132;2022-11-18T08:41:47;24.00;;;11.33;;
20928;SDS011;21895;47.072;15.132;2022-11-18T08:44:14;26.67;;;12.20;;
20928;SDS011;21895;47.072;15.132;2022-11-18T08:46:42;27.33;;;12.00;;
20928;SDS011;21895;47.072;15.132;2022-11-18T08:49:12;27.63;;;10.67;;
20928;SDS011;21895;47.072;15.132;2022-11-18T08:51:38;23.10;;;9.87;;
20928;SDS011;21895;47.072;15.132;2022-11-18T08:54:05;27.50;;;11.07;;
20928;SDS011;21895;47.072;15.132;2022-11-18T08:56:31;25.80;;;12.03;;
20928;SDS011;21895;47.072;15.132;2022-11-18T08:58:58;26.53;;;12.10;;
20928;SDS011;21895;47.072;15.132;2022-11-18T09:01:24;26.47;;;11.67;;
20928;SDS011;21895;47.072;15.132;2022-11-18T09:03:52;28.63;;;12.60;;
20928;SDS011;21895;47.072;15.132;2022-11-18T09:06:19;31.47;;;13.00;;
20928;SDS011;21895;47.072;15.132;2022-11-18T09:08:49;37.87;;;15.13;;
20928;SDS011;21895;47.072;15.132;2022-11-18T09:11:16;40.27;;;15.87;;
20928;SDS011;21895;47.072;15.132;2022-11-18T09:13:53;27.63;;;11.97;;
20928;SDS011;21895;47.072;15.132;2022-11-18T09:16:51;24.93;;;10.60;;
20928;SDS011;21895;47.072;15.132;2022-11-18T09:19:18;24.87;;;10.40;;
20928;SDS011;21895;47.072;15.132;2022-11-18T09:22:14;23.53;;;11.17;;
20928;SDS011;21895;47.072;15.132;2022-11-18T09:24:41;20.50;;;10.33;;
20928;SDS011;21895;47.072;15.132;2022-11-18T09:27:08;24.13;;;10.40;;
20928;SDS011;21895;47.072;15.132;2022-11-18T09:29:42;22.37;;;11.27;;
20928;SDS011;21895;47.072;15.132;2022-11-18T09:32:08;21.10;;;10.93;;
20928;SDS011;21895;47.072;15.132;2022-11-18T09:34:35;31.30;;;13.13;;
20928;SDS011;21895;47.072;15.132;2022-11-18T09:37:04;30.07;;;12.80;;
20928;SDS011;21895;47.072;15.132;2022-11-18T09:39:33;28.87;;;12.77;;
20928;SDS011;21895;47.072;15.132;2022-11-18T09:42:26;33.37;;;14.33;;
20928;SDS011;21895;47.072;15.132;2022-11-18T09:47:31;27.57;;;11.90;;
20928;SDS011;21895;47.072;15.132;2022-11-18T09:50:10;32.07;;;12.10;;
20928;SDS011;21895;47.072;15.132;2022-11-18T09:53:16;26.90;;;12.77;;
20928;SDS011;21895;47.072;15.132;2022-11-18T09:55:50;29.33;;;13.27;;
20928;SDS011;21895;47.072;15.132;2022-11-18T10:01:19;21.53;;;10.27;;
20928;SDS011;21895;47.072;15.132;2022-11-18T10:03:46;20.33;;;9.57;;
20928;SDS011;21895;47.072;15.132;2022-11-18T10:06:19;20.73;;;9.30;;
20928;SDS011;21895;47.072;15.132;2022-11-18T10:12:56;20.80;;;8.73;;
20928;SDS011;21895;47.072;15.132;2022-11-18T10:15:55;21.50;;;9.47;;
20928;SDS011;21895;47.072;15.132;2022-11-18T10:19:04;22.20;;;11.23;;
20928;SDS011;21895;47.072;15.132;2022-11-18T10:22:29;20.43;;;9.93;;
20928;SDS011;21895;47.072;15.132;2022-11-18T10:25:21;23.57;;;10.00;;
20928;SDS011;21895;47.072;15.132;2022-11-18T10:27:48;23.43;;;10.97;;
20928;SDS011;21895;47.072;15.132;2022-11-18T10:30:20;20.97;;;10.80;;
20928;SDS011;21895;47.072;15.132;2022-11-18T10:32:59;25.47;;;11.40;;
20928;SDS011;21895;47.072;15.132;2022-11-18T10:35:31;22.50;;;11.50;;
20928;SDS011;21895;47.072;15.132;2022-11-18T10:38:04;27.00;;;13.17;;
20928;SDS011;21895;47.072;15.132;2022-11-18T10:40:58;22.77;;;11.67;;
20928;SDS011;21895;47.072;15.132;2022-11-18T10:43:47;22.90;;;11.47;;
20928;SDS011;21895;47.072;15.132;2022-11-18T10:46:22;23.53;;;12.13;;
20928;SDS011;21895;47.072;15.132;2022-11-18T10:49:13;22.03;;;10.63;;
20928;SDS011;21895;47.072;15.132;2022-11-18T10:54:37;20.63;;;10.63;;
20928;SDS011;21895;47.072;15.132;2022-11-18T10:59:55;21.07;;;11.50;;
20928;SDS011;21895;47.072;15.132;2022-11-18T11:02:40;26.43;;;12.33;;
20928;SDS011;21895;47.072;15.132;2022-11-18T11:05:18;27.67;;;13.67;;
20928;SDS011;21895;47.072;15.132;2022-11-18T11:08:00;28.53;;;14.23;;
20928;SDS011;21895;47.072;15.132;2022-11-18T11:11:01;21.80;;;11.90;;
20928;SDS011;21895;47.072;15.132;2022-11-18T11:13:28;22.00;;;11.60;;
20928;SDS011;21895;47.072;15.132;2022-11-18T11:15:58;26.83;;;11.67;;
20928;SDS011;21895;47.072;15.132;2022-11-18T11:18:30;22.97;;;11.13;;
20928;SDS011;21895;47.072;15.132;2022-11-18T11:21:09;28.73;;;12.43;;
20928;SDS011;21895;47.072;15.132;2022-11-18T11:23:42;19.00;;;9.90;;
20928;SDS011;21895;47.072;15.132;2022-11-18T11:26:31;19.83;;;9.80;;
20928;SDS011;21895;47.072;15.132;2022-11-18T11:35:04;25.67;;;13.77;;
20928;SDS011;21895;47.072;15.132;2022-11-18T11:38:11;32.50;;;14.43;;
20928;SDS011;21895;47.072;15.132;2022-11-18T11:41:23;28.00;;;13.30;;
20928;SDS011;21895;47.072;15.132;2022-11-18T11:44:06;27.57;;;12.80;;
20928;SDS011;21895;47.072;15.132;2022-11-18T11:49:59;23.63;;;9.13;;
20928;SDS011;21895;47.072;15.132;2022-11-18T11:52:47;23.40;;;11.23;;
20928;SDS011;21895;47.072;15.132;2022-11-18T12:08:19;17.40;;;9.87;;
20928;SDS011;21895;47.072;15.132;2022-11-18T12:11:05;21.43;;;9.07;;
20928;SDS011;21895;47.072;15.132;2022-11-18T12:19:46;26.17;;;14.07;;
20928;SDS011;21895;47.072;15.132;2022-11-18T12:22:13;26.87;;;13.57;;
20928;SDS011;21895;47.072;15.132;2022-11-18T12:24:40;31.27;;;13.73;;
20928;SDS011;21895;47.072;15.132;2022-11-18T12:27:11;28.60;;;13.57;;
20928;SDS011;21895;47.072;15.132;2022-11-18T12:33:22;26.33;;;12.80;;
20928;SDS011;21895;47.072;15.132;2022-11-18T12:35:49;23.37;;;12.67;;
20928;SDS011;21895;47.072;15.132;2022-11-18T12:38:29;20.73;;;10.93;;
20928;SDS011;21895;47.072;15.132;2022-11-18T12:40:57;23.57;;;10.57;;
20928;SDS011;21895;47.072;15.132;2022-11-18T12:55:15;19.70;;;10.17;;
20928;SDS011;21895;47.072;15.132;2022-11-18T12:57:51;16.93;;;9.87;;
20928;SDS011;21895;47.072;15.132;2022-11-18T13:00:27;20.80;;;10.53;;
20928;SDS011;21895;47.072;15.132;2022-11-18T13:02:57;25.63;;;10.63;;
20928;SDS011;21895;47.072;15.132;2022-11-18T13:05:27;19.93;;;9.83;;
20928;SDS011;21895;47.072;15.132;2022-11-18T13:08:08;22.67;;;11.20;;
20928;SDS011;21895;47.072;15.132;2022-11-18T13:10:39;23.60;;;10.73;;
20928;SDS011;21895;47.072;15.132;2022-11-18T13:13:40;22.30;;;10.73;;
20928;SDS011;21895;47.072;15.132;2022-11-18T13:16:18;18.53;;;10.67;;
20928;SDS011;21895;47.072;15.132;2022-11-18T13:19:07;18.97;;;10.30;;
20928;SDS011;21895;47.072;15.132;2022-11-18T13:21:34;20.03;;;9.90;;
20928;SDS011;21895;47.072;15.132;2022-11-18T13:24:20;16.50;;;9.73;;
20928;SDS011;21895;47.072;15.132;2022-11-18T13:26:52;25.43;;;11.20;;
20928;SDS011;21895;47.072;15.132;2022-11-18T13:30:00;24.03;;;10.30;;
20928;SDS011;21895;47.072;15.132;2022-11-18T13:32:34;21.90;;;11.03;;
20928;SDS011;21895;47.072;15.132;2022-11-18T13:35:17;20.23;;;10.33;;
20928;SDS011;21895;47.072;15.132;2022-11-18T13:37:47;24.27;;;10.30;;
20928;SDS011;21895;47.072;15.132;2022-11-18T13:40:30;23.97;;;10.87;;
20928;SDS011;21895;47.072;15.132;2022-11-18T13:43:30;30.50;;;12.50;;
20928;SDS011;21895;47.072;15.132;2022-11-18T13:45:57;37.80;;;13.37;;
20928;SDS011;21895;47.072;15.132;2022-11-18T13:48:29;25.53;;;12.60;;
20928;SDS011;21895;47.072;15.132;2022-11-18T13:50:59;24.83;;;12.10;;
20928;SDS011;21895;47.072;15.132;2022-11-18T13:53:30;24.73;;;12.80;;
20928;SDS011;21895;47.072;15.132;2022-11-18T13:56:06;30.40;;;13.17;;
20928;SDS011;21895;47.072;15.132;2022-11-18T13:58:51;26.27;;;13.10;;
20928;SDS011;21895;47.072;15.132;2022-11-18T14:01:43;28.73;;;12.83;;
20928;SDS011;21895;47.072;15.132;2022-11-18T14:04:16;23.60;;;12.93;;
20928;SDS011;21895;47.072;15.132;2022-11-18T14:06:48;29.80;;;13.93;;
20928;SDS011;21895;47.072;15.132;2022-11-18T14:09:19;31.27;;;13.00;;
20928;SDS011;21895;47.072;15.132;2022-11-18T14:11:59;29.93;;;14.30;;
20928;SDS011;21895;47.072;15.132;2022-11-18T14:14:35;35.17;;;14.30;;
20928;SDS011;21895;47.072;15.132;2022-11-18T14:21:11;41.50;;;19.43;;
20928;SDS011;21895;47.072;15.132;2022-11-18T14:23:40;39.53;;;18.63;;
20928;SDS011;21895;47.072;15.132;2022-11-18T14:26:08;37.27;;;16.87;;
20928;SDS011;21895;47.072;15.132;2022-11-18T14:28:35;42.30;;;19.10;;
20928;SDS011;21895;47.072;15.132;2022-11-18T14:31:04;39.50;;;16.60;;
20928;SDS011;21895;47.072;15.132;2022-11-18T14:36:52;32.03;;;13.53;;
20928;SDS011;21895;47.072;15.132;2022-11-18T14:42:09;34.23;;;14.90;;
20928;SDS011;21895;47.072;15.132;2022-11-18T14:44:37;31.10;;;14.27;;
20928;SDS011;21895;47.072;15.132;2022-11-18T14:47:07;33.20;;;16.07;;
20928;SDS011;21895;47.072;15.132;2022-11-18T14:49:49;28.30;;;15.13;;
20928;SDS011;21895;47.072;15.132;2022-11-18T14:52:16;27.17;;;13.63;;
20928;SDS011;21895;47.072;15.132;2022-11-18T14:54:42;26.50;;;14.13;;
20928;SDS011;21895;47.072;15.132;2022-11-18T14:57:09;29.07;;;13.77;;
20928;SDS011;21895;47.072;15.132;2022-11-18T14:59:41;37.10;;;14.77;;
20928;SDS011;21895;47.072;15.132;2022-11-18T15:02:12;29.60;;;14.23;;
20928;SDS011;21895;47.072;15.132;2022-11-18T15:04:41;29.17;;;13.87;;
20928;SDS011;21895;47.072;15.132;2022-11-18T15:07:11;27.57;;;13.73;;
20928;SDS011;21895;47.072;15.132;2022-11-18T15:09:43;26.93;;;13.90;;
20928;SDS011;21895;47.072;15.132;2022-11-18T15:12:10;28.03;;;13.93;;
20928;SDS011;21895;47.072;15.132;2022-11-18T15:14:36;27.60;;;13.53;;
20928;SDS011;21895;47.072;15.132;2022-11-18T15:17:03;26.73;;;13.87;;
20928;SDS011;21895;47.072;15.132;2022-11-18T15:19:30;31.47;;;14.03;;
20928;SDS011;21895;47.072;15.132;2022-11-18T15:21:57;26.67;;;13.33;;
20928;SDS011;21895;47.072;15.132;2022-11-18T15:24:24;30.00;;;14.47;;
20928;SDS011;21895;47.072;15.132;2022-11-18T15:26:50;31.13;;;15.93;;
20928;SDS011;21895;47.072;15.132;2022-11-18T15:29:18;41.73;;;20.50;;
20928;SDS011;21895;47.072;15.132;2022-11-18T15:31:48;49.00;;;23.60;;
20928;SDS011;21895;47.072;15.132;2022-11-18T15:34:15;94.93;;;34.53;;
20928;SDS011;21895;47.072;15.132;2022-11-18T15:36:44;75.70;;;29.50;;
20928;SDS011;21895;47.072;15.132;2022-11-18T15:39:11;30.20;;;15.30;;
20928;SDS011;21895;47.072;15.132;2022-11-18T15:41:38;32.03;;;15.47;;
20928;SDS011;21895;47.072;15.132;2022-11-18T15:44:08;26.23;;;13.57;;
20928;SDS011;21895;47.072;15.132;2022-11-18T15:46:35;29.27;;;13.50;;
20928;SDS011;21895;47.072;15.132;2022-11-18T15:49:03;25.60;;;12.37;;
20928;SDS011;21895;47.072;15.132;2022-11-18T15:51:30;27.60;;;13.63;;
20928;SDS011;21895;47.072;15.132;2022-11-18T15:53:57;33.97;;;13.17;;
20928;SDS011;21895;47.072;15.132;2022-11-18T15:56:30;48.47;;;20.97;;
20928;SDS011;21895;47.072;15.132;2022-11-18T15:59:31;51.33;;;20.50;;
20928;SDS011;21895;47.072;15.132;2022-11-18T16:01:57;40.57;;;19.33;;
20928;SDS011;21895;47.072;15.132;2022-11-18T16:04:24;38.07;;;19.03;;
20928;SDS011;21895;47.072;15.132;2022-11-18T16:06:51;34.60;;;17.53;;
20928;SDS011;21895;47.072;15.132;2022-11-18T16:09:18;38.30;;;18.00;;
20928;SDS011;21895;47.072;15.132;2022-11-18T16:11:45;32.93;;;15.57;;
20928;SDS011;21895;47.072;15.132;2022-11-18T16:14:29;21.43;;;10.83;;
20928;SDS011;21895;47.072;15.132;2022-11-18T16:16:56;23.80;;;10.90;;
20928;SDS011;21895;47.072;15.132;2022-11-18T16:19:23;25.47;;;11.70;;
20928;SDS011;21895;47.072;15.132;2022-11-18T16:21:53;21.47;;;10.60;;